sensor_id;sensor_type;location;lat;lon;timestamp;P1;durP1;ratioP1;P2;durP2;ratioP2
20002;SDS011;10162;41.600;23.806;2023-03-26T00:01:52;6.97;;;5.27;;
20002;SDS011;10162;41.600;23.806;2023-03-26T00:04:18;7.27;;;5.70;;
20002;SDS011;10162;41.600;23.806;2023-03-26T00:06:45;7.77;;;5.07;;
20002;SDS011;10162;41.600;23.806;2023-03-26T00:09:13;6.63;;;4.80;;
20002;SDS011;10162;41.600;23.806;2023-03-26T00:11:41;5.57;;;4.43;;
20002;SDS011;10162;41.600;23.806;2023-03-26T00:14:13;6.03;;;4.37;;
20002;SDS011;10162;41.600;23.806;2023-03-26T00:16:42;6.63;;;4.87;;
20002;SDS011;10162;41.600;23.806;2023-03-26T00:19:10;7.63;;;4.67;;
20002;SDS011;10162;41.600;23.806;2023-03-26T00:21:36;7.03;;;4.57;;
20002;SDS011;10162;41.600;23.806;2023-03-26T00:24:04;8.03;;;4.37;;
20002;SDS011;10162;41.600;23.806;2023-03-26T00:26:32;6.07;;;4.20;;
20002;SDS011;10162;41.600;23.806;2023-03-26T00:29:00;7.63;;;4.00;;
20002;SDS011;10162;41.600;23.806;2023-03-26T00:31:27;5.63;;;3.67;;
20002;SDS011;10162;41.600;23.806;2023-03-26T00:37:07;5.30;;;4.00;;
20002;SDS011;10162;41.600;23.806;2023-03-26T00:39:33;5.80;;;4.03;;
20002;SDS011;10162;41.600;23.806;2023-03-26T00:42:04;5.53;;;4.10;;
20002;SDS011;10162;41.600;23.806;2023-03-26T00:44:31;5.70;;;4.10;;
20002;SDS011;10162;41.600;23.806;2023-03-26T00:46:59;5.93;;;4.40;;
20002;SDS011;10162;41.600;23.806;2023-03-26T00:49:25;4.80;;;4.27;;
20002;SDS011;10162;41.600;23.806;2023-03-26T00:51:58;5.93;;;4.80;;
20002;SDS011;10162;41.600;23.806;2023-03-26T00:54:28;6.50;;;5.07;;
20002;SDS011;10162;41.600;23.806;2023-03-26T00:56:54;7.83;;;5.10;;
20002;SDS011;10162;41.600;23.806;2023-03-26T00:59:22;7.83;;;5.53;;
20002;SDS011;10162;41.600;23.806;2023-03-26T01:01:48;7.37;;;5.33;;
20002;SDS011;10162;41.600;23.806;2023-03-26T01:07:15;7.80;;;5.20;;
20002;SDS011;10162;41.600;23.806;2023-03-26T01:09:48;7.37;;;5.00;;
20002;SDS011;10162;41.600;23.806;2023-03-26T01:15:08;8.20;;;6.10;;
20002;SDS011;10162;41.600;23.806;2023-03-26T01:17:34;9.27;;;6.23;;
20002;SDS011;10162;41.600;23.806;2023-03-26T01:20:08;9.23;;;6.97;;
20002;SDS011;10162;41.600;23.806;2023-03-26T01:36:06;9.20;;;5.00;;
20002;SDS011;10162;41.600;23.806;2023-03-26T01:38:56;5.83;;;4.63;;
20002;SDS011;10162;41.600;23.806;2023-03-26T01:41:35;6.03;;;4.80;;
20002;SDS011;10162;41.600;23.806;2023-03-26T01:47:31;5.97;;;4.67;;
20002;SDS011;10162;41.600;23.806;2023-03-26T01:49:59;4.97;;;4.23;;
20002;SDS011;10162;41.600;23.806;2023-03-26T01:55:57;5.63;;;4.20;;
20002;SDS011;10162;41.600;23.806;2023-03-26T01:58:53;5.97;;;4.50;;
20002;SDS011;10162;41.600;23.806;2023-03-26T02:07:22;7.40;;;5.13;;
20002;SDS011;10162;41.600;23.806;2023-03-26T02:09:56;9.43;;;6.13;;
20002;SDS011;10162;41.600;23.806;2023-03-26T02:12:36;10.23;;;7.70;;
20002;SDS011;10162;41.600;23.806;2023-03-26T02:15:04;9.90;;;6.67;;
20002;SDS011;10162;41.600;23.806;2023-03-26T02:17:31;8.30;;;6.13;;
20002;SDS011;10162;41.600;23.806;2023-03-26T02:20:00;7.70;;;6.17;;
20002;SDS011;10162;41.600;23.806;2023-03-26T02:22:37;8.43;;;6.40;;
20002;SDS011;10162;41.600;23.806;2023-03-26T02:25:16;8.60;;;5.70;;
20002;SDS011;10162;41.600;23.806;2023-03-26T02:27:49;9.97;;;6.33;;
20002;SDS011;10162;41.600;23.806;2023-03-26T02:30:22;8.10;;;5.97;;
20002;SDS011;10162;41.600;23.806;2023-03-26T02:33:09;8.93;;;5.77;;
20002;SDS011;10162;41.600;23.806;2023-03-26T02:35:48;10.00;;;5.97;;
20002;SDS011;10162;41.600;23.806;2023-03-26T02:38:15;8.33;;;5.83;;
20002;SDS011;10162;41.600;23.806;2023-03-26T02:40:43;8.83;;;5.87;;
20002;SDS011;10162;41.600;23.806;2023-03-26T02:47:21;11.57;;;5.60;;
20002;SDS011;10162;41.600;23.806;2023-03-26T02:50:03;6.40;;;5.00;;
20002;SDS011;10162;41.600;23.806;2023-03-26T02:55:39;6.07;;;4.63;;
20002;SDS011;10162;41.600;23.806;2023-03-26T02:58:12;5.97;;;4.53;;
20002;SDS011;10162;41.600;23.806;2023-03-26T03:00:45;5.83;;;4.73;;
20002;SDS011;10162;41.600;23.806;2023-03-26T03:03:36;6.27;;;4.10;;
20002;SDS011;10162;41.600;23.806;2023-03-26T03:06:25;6.00;;;4.70;;
20002;SDS011;10162;41.600;23.806;2023-03-26T03:08:56;4.97;;;4.13;;
20002;SDS011;10162;41.600;23.806;2023-03-26T03:11:42;7.87;;;3.97;;
20002;SDS011;10162;41.600;23.806;2023-03-26T03:17:03;9.07;;;4.73;;
20002;SDS011;10162;41.600;23.806;2023-03-26T03:19:29;10.03;;;4.37;;
20002;SDS011;10162;41.600;23.806;2023-03-26T03:25:20;7.83;;;4.87;;
20002;SDS011;10162;41.600;23.806;2023-03-26T03:27:50;5.87;;;4.40;;
20002;SDS011;10162;41.600;23.806;2023-03-26T03:30:20;5.73;;;4.40;;
20002;SDS011;10162;41.600;23.806;2023-03-26T03:35:52;9.83;;;6.73;;
20002;SDS011;10162;41.600;23.806;2023-03-26T03:38:22;10.77;;;7.20;;
20002;SDS011;10162;41.600;23.806;2023-03-26T03:40:51;6.70;;;4.63;;
20002;SDS011;10162;41.600;23.806;2023-03-26T03:43:18;8.47;;;5.07;;
20002;SDS011;10162;41.600;23.806;2023-03-26T03:45:59;6.40;;;5.00;;
20002;SDS011;10162;41.600;23.806;2023-03-26T03:48:33;10.50;;;6.10;;
20002;SDS011;10162;41.600;23.806;2023-03-26T03:51:04;8.50;;;6.30;;
20002;SDS011;10162;41.600;23.806;2023-03-26T03:53:41;9.80;;;6.53;;
20002;SDS011;10162;41.600;23.806;2023-03-26T03:56:09;9.77;;;6.50;;
20002;SDS011;10162;41.600;23.806;2023-03-26T03:58:54;9.57;;;6.73;;
20002;SDS011;10162;41.600;23.806;2023-03-26T04:01:31;9.23;;;6.00;;
20002;SDS011;10162;41.600;23.806;2023-03-26T04:07:31;9.40;;;5.83;;
20002;SDS011;10162;41.600;23.806;2023-03-26T04:10:03;12.17;;;8.13;;
20002;SDS011;10162;41.600;23.806;2023-03-26T04:16:50;41.40;;;25.10;;
20002;SDS011;10162;41.600;23.806;2023-03-26T04:19:20;26.87;;;15.80;;
20002;SDS011;10162;41.600;23.806;2023-03-26T04:21:52;45.27;;;22.20;;
20002;SDS011;10162;41.600;23.806;2023-03-26T04:24:20;23.37;;;13.97;;
20002;SDS011;10162;41.600;23.806;2023-03-26T04:27:16;22.50;;;13.53;;
20002;SDS011;10162;41.600;23.806;2023-03-26T04:29:49;24.07;;;16.77;;
20002;SDS011;10162;41.600;23.806;2023-03-26T04:32:39;15.17;;;10.77;;
20002;SDS011;10162;41.600;23.806;2023-03-26T04:35:15;14.40;;;8.97;;
20002;SDS011;10162;41.600;23.806;2023-03-26T04:37:56;14.53;;;9.47;;
20002;SDS011;10162;41.600;23.806;2023-03-26T04:40:34;11.30;;;6.60;;
20002;SDS011;10162;41.600;23.806;2023-03-26T04:43:29;11.10;;;6.67;;
20002;SDS011;10162;41.600;23.806;2023-03-26T04:46:18;10.00;;;6.63;;
20002;SDS011;10162;41.600;23.806;2023-03-26T04:49:03;8.87;;;6.57;;
20002;SDS011;10162;41.600;23.806;2023-03-26T04:51:42;8.67;;;6.50;;
20002;SDS011;10162;41.600;23.806;2023-03-26T04:54:34;10.30;;;6.90;;
20002;SDS011;10162;41.600;23.806;2023-03-26T04:57:06;8.23;;;6.10;;
20002;SDS011;10162;41.600;23.806;2023-03-26T04:59:53;7.50;;;6.03;;
20002;SDS011;10162;41.600;23.806;2023-03-26T05:02:20;9.03;;;6.13;;
20002;SDS011;10162;41.600;23.806;2023-03-26T05:04:52;10.90;;;6.00;;
20002;SDS011;10162;41.600;23.806;2023-03-26T05:07:27;9.73;;;6.90;;
20002;SDS011;10162;41.600;23.806;2023-03-26T05:09:59;10.90;;;6.43;;
20002;SDS011;10162;41.600;23.806;2023-03-26T05:12:53;12.97;;;6.60;;
20002;SDS011;10162;41.600;23.806;2023-03-26T05:15:25;11.90;;;6.87;;
20002;SDS011;10162;41.600;23.806;2023-03-26T05:17:53;20.47;;;7.23;;
20002;SDS011;10162;41.600;23.806;2023-03-26T05:20:27;9.87;;;7.67;;
20002;SDS011;10162;41.600;23.806;2023-03-26T05:22:55;10.57;;;7.77;;
20002;SDS011;10162;41.600;23.806;2023-03-26T05:25:25;10.13;;;7.40;;
20002;SDS011;10162;41.600;23.806;2023-03-26T05:27:54;10.07;;;7.27;;
20002;SDS011;10162;41.600;23.806;2023-03-26T05:30:24;13.07;;;8.80;;
20002;SDS011;10162;41.600;23.806;2023-03-26T05:35:47;13.37;;;9.20;;
20002;SDS011;10162;41.600;23.806;2023-03-26T05:38:24;15.23;;;10.83;;
20002;SDS011;10162;41.600;23.806;2023-03-26T05:40:57;18.10;;;12.83;;
20002;SDS011;10162;41.600;23.806;2023-03-26T05:46:13;33.23;;;16.53;;
20002;SDS011;10162;41.600;23.806;2023-03-26T05:48:41;66.73;;;19.03;;
20002;SDS011;10162;41.600;23.806;2023-03-26T05:51:07;60.77;;;15.30;;
20002;SDS011;10162;41.600;23.806;2023-03-26T05:56:42;43.60;;;11.87;;
20002;SDS011;10162;41.600;23.806;2023-03-26T05:59:50;61.50;;;16.00;;
20002;SDS011;10162;41.600;23.806;2023-03-26T06:06:39;78.00;;;16.93;;
20002;SDS011;10162;41.600;23.806;2023-03-26T06:09:07;66.10;;;13.00;;
20002;SDS011;10162;41.600;23.806;2023-03-26T06:11:33;66.23;;;12.23;;
20002;SDS011;10162;41.600;23.806;2023-03-26T06:14:02;68.33;;;13.37;;
20002;SDS011;10162;41.600;23.806;2023-03-26T06:16:28;87.73;;;13.97;;
20002;SDS011;10162;41.600;23.806;2023-03-26T06:19:05;60.27;;;11.67;;
20002;SDS011;10162;41.600;23.806;2023-03-26T06:21:54;32.33;;;9.43;;
20002;SDS011;10162;41.600;23.806;2023-03-26T06:24:26;26.13;;;9.70;;
20002;SDS011;10162;41.600;23.806;2023-03-26T06:27:04;31.30;;;8.33;;
20002;SDS011;10162;41.600;23.806;2023-03-26T06:29:32;20.13;;;6.90;;
20002;SDS011;10162;41.600;23.806;2023-03-26T06:32:26;19.67;;;7.13;;
20002;SDS011;10162;41.600;23.806;2023-03-26T06:34:57;19.17;;;6.90;;
20002;SDS011;10162;41.600;23.806;2023-03-26T06:37:25;18.83;;;6.67;;
20002;SDS011;10162;41.600;23.806;2023-03-26T06:39:56;17.70;;;7.93;;
20002;SDS011;10162;41.600;23.806;2023-03-26T06:45:27;20.70;;;7.00;;
20002;SDS011;10162;41.600;23.806;2023-03-26T06:48:27;12.00;;;6.00;;
20002;SDS011;10162;41.600;23.806;2023-03-26T06:51:14;11.17;;;6.60;;
20002;SDS011;10162;41.600;23.806;2023-03-26T06:54:01;10.00;;;5.87;;
20002;SDS011;10162;41.600;23.806;2023-03-26T06:56:45;13.10;;;6.20;;
20002;SDS011;10162;41.600;23.806;2023-03-26T06:59:35;9.57;;;6.23;;
20002;SDS011;10162;41.600;23.806;2023-03-26T07:05:18;6.77;;;5.17;;
20002;SDS011;10162;41.600;23.806;2023-03-26T07:08:03;10.67;;;5.67;;
20002;SDS011;10162;41.600;23.806;2023-03-26T07:10:49;11.20;;;5.93;;
20002;SDS011;10162;41.600;23.806;2023-03-26T07:13:25;9.47;;;5.57;;
20002;SDS011;10162;41.600;23.806;2023-03-26T07:16:09;7.23;;;4.83;;
20002;SDS011;10162;41.600;23.806;2023-03-26T07:18:55;7.27;;;4.53;;
20002;SDS011;10162;41.600;23.806;2023-03-26T07:21:27;4.77;;;3.30;;
20002;SDS011;10162;41.600;23.806;2023-03-26T07:24:00;6.97;;;2.40;;
20002;SDS011;10162;41.600;23.806;2023-03-26T07:29:53;2.50;;;1.80;;
20002;SDS011;10162;41.600;23.806;2023-03-26T07:33:00;1.80;;;1.70;;
20002;SDS011;10162;41.600;23.806;2023-03-26T07:35:54;1.70;;;1.60;;
20002;SDS011;10162;41.600;23.806;2023-03-26T07:38:41;2.47;;;1.90;;
20002;SDS011;10162;41.600;23.806;2023-03-26T07:41:31;1.60;;;1.10;;
20002;SDS011;10162;41.600;23.806;2023-03-26T07:44:50;5.33;;;1.90;;
20002;SDS011;10162;41.600;23.806;2023-03-26T07:47:39;3.27;;;1.30;;
20002;SDS011;10162;41.600;23.806;2023-03-26T07:50:17;1.73;;;1.37;;
20002;SDS011;10162;41.600;23.806;2023-03-26T07:53:04;5.03;;;1.67;;
20002;SDS011;10162;41.600;23.806;2023-03-26T07:55:46;2.70;;;1.93;;
20002;SDS011;10162;41.600;23.806;2023-03-26T07:58:41;1.40;;;1.30;;
20002;SDS011;10162;41.600;23.806;2023-03-26T08:01:38;1.70;;;1.47;;
20002;SDS011;10162;41.600;23.806;2023-03-26T08:04:38;4.40;;;1.90;;
20002;SDS011;10162;41.600;23.806;2023-03-26T08:22:33;3.37;;;2.40;;
20002;SDS011;10162;41.600;23.806;2023-03-26T08:32:56;12.17;;;7.47;;
20002;SDS011;10162;41.600;23.806;2023-03-26T08:35:44;4.13;;;3.40;;
20002;SDS011;10162;41.600;23.806;2023-03-26T08:38:12;3.90;;;3.50;;
20002;SDS011;10162;41.600;23.806;2023-03-26T09:01:12;2.87;;;2.20;;
20002;SDS011;10162;41.600;23.806;2023-03-26T09:36:19;2.30;;;1.57;;
20002;SDS011;10162;41.600;23.806;2023-03-26T10:14:23;9.40;;;1.50;;
20002;SDS011;10162;41.600;23.806;2023-03-26T10:33:17;1.77;;;1.20;;
20002;SDS011;10162;41.600;23.806;2023-03-26T10:36:43;2.50;;;2.13;;
20002;SDS011;10162;41.600;23.806;2023-03-26T10:47:04;1.10;;;0.70;;
20002;SDS011;10162;41.600;23.806;2023-03-26T10:56:00;0.70;;;0.60;;
20002;SDS011;10162;41.600;23.806;2023-03-26T10:58:38;2.00;;;0.60;;
20002;SDS011;10162;41.600;23.806;2023-03-26T11:01:09;1.93;;;0.63;;
20002;SDS011;10162;41.600;23.806;2023-03-26T11:06:49;2.33;;;0.70;;
20002;SDS011;10162;41.600;23.806;2023-03-26T11:09:36;0.45;;;0.45;;
20002;SDS011;10162;41.600;23.806;2023-03-26T11:13:14;0.90;;;0.90;;
20002;SDS011;10162;41.600;23.806;2023-03-26T11:24:41;0.70;;;0.70;;
20002;SDS011;10162;41.600;23.806;2023-03-26T11:33:02;0.70;;;0.70;;
20002;SDS011;10162;41.600;23.806;2023-03-26T11:35:37;0.52;;;0.52;;
20002;SDS011;10162;41.600;23.806;2023-03-26T11:40:51;1.23;;;0.90;;
20002;SDS011;10162;41.600;23.806;2023-03-26T11:43:40;1.60;;;0.77;;
20002;SDS011;10162;41.600;23.806;2023-03-26T11:46:10;0.88;;;0.70;;
20002;SDS011;10162;41.600;23.806;2023-03-26T11:48:42;0.85;;;0.80;;
20002;SDS011;10162;41.600;23.806;2023-03-26T11:53:44;1.17;;;0.80;;
20002;SDS011;10162;41.600;23.806;2023-03-26T11:56:27;3.90;;;1.20;;
20002;SDS011;10162;41.600;23.806;2023-03-26T11:59:10;1.15;;;0.98;;
20002;SDS011;10162;41.600;23.806;2023-03-26T12:01:41;1.52;;;1.42;;
20002;SDS011;10162;41.600;23.806;2023-03-26T12:04:25;0.93;;;0.93;;
20002;SDS011;10162;41.600;23.806;2023-03-26T12:07:03;1.83;;;0.70;;
20002;SDS011;10162;41.600;23.806;2023-03-26T12:09:45;1.17;;;0.90;;
20002;SDS011;10162;41.600;23.806;2023-03-26T12:12:17;0.70;;;0.68;;
20002;SDS011;10162;41.600;23.806;2023-03-26T12:14:43;0.90;;;0.70;;
20002;SDS011;10162;41.600;23.806;2023-03-26T12:17:11;0.90;;;0.90;;
20002;SDS011;10162;41.600;23.806;2023-03-26T12:19:40;1.08;;;0.90;;
20002;SDS011;10162;41.600;23.806;2023-03-26T12:27:44;0.70;;;0.70;;
20002;SDS011;10162;41.600;23.806;2023-03-26T12:30:22;1.35;;;1.00;;
20002;SDS011;10162;41.600;23.806;2023-03-26T12:35:29;0.93;;;0.88;;
20002;SDS011;10162;41.600;23.806;2023-03-26T12:43:38;0.80;;;0.80;;
20002;SDS011;10162;41.600;23.806;2023-03-26T12:46:21;1.98;;;0.90;;
20002;SDS011;10162;41.600;23.806;2023-03-26T12:48:52;1.13;;;1.02;;
20002;SDS011;10162;41.600;23.806;2023-03-26T12:53:57;2.55;;;0.90;;
20002;SDS011;10162;41.600;23.806;2023-03-26T12:59:14;1.10;;;1.00;;
20002;SDS011;10162;41.600;23.806;2023-03-26T13:10:39;2.75;;;0.90;;
20002;SDS011;10162;41.600;23.806;2023-03-26T13:16:39;1.13;;;1.02;;
20002;SDS011;10162;41.600;23.806;2023-03-26T13:19:29;0.82;;;0.82;;
20002;SDS011;10162;41.600;23.806;2023-03-26T13:22:16;0.85;;;0.80;;
20002;SDS011;10162;41.600;23.806;2023-03-26T13:27:47;2.58;;;1.40;;
20002;SDS011;10162;41.600;23.806;2023-03-26T13:38:31;1.63;;;0.80;;
20002;SDS011;10162;41.600;23.806;2023-03-26T13:41:17;1.35;;;0.70;;
20002;SDS011;10162;41.600;23.806;2023-03-26T13:46:34;0.90;;;0.90;;
20002;SDS011;10162;41.600;23.806;2023-03-26T13:51:47;0.80;;;0.70;;
20002;SDS011;10162;41.600;23.806;2023-03-26T13:56:58;1.50;;;1.40;;
20002;SDS011;10162;41.600;23.806;2023-03-26T13:59:53;1.30;;;1.20;;
20002;SDS011;10162;41.600;23.806;2023-03-26T14:05:20;1.25;;;1.10;;
20002;SDS011;10162;41.600;23.806;2023-03-26T14:07:49;1.25;;;1.08;;
20002;SDS011;10162;41.600;23.806;2023-03-26T14:21:40;5.55;;;1.30;;
20002;SDS011;10162;41.600;23.806;2023-03-26T14:32:56;0.90;;;0.90;;
20002;SDS011;10162;41.600;23.806;2023-03-26T14:35:35;3.70;;;3.27;;
20002;SDS011;10162;41.600;23.806;2023-03-26T14:44:04;3.70;;;2.20;;
20002;SDS011;10162;41.600;23.806;2023-03-26T14:50:00;1.50;;;1.17;;
20002;SDS011;10162;41.600;23.806;2023-03-26T14:55:42;1.27;;;1.10;;
20002;SDS011;10162;41.600;23.806;2023-03-26T15:04:55;1.60;;;0.97;;
20002;SDS011;10162;41.600;23.806;2023-03-26T15:33:48;4.40;;;1.80;;
20002;SDS011;10162;41.600;23.806;2023-03-26T15:39:55;3.53;;;1.80;;
20002;SDS011;10162;41.600;23.806;2023-03-26T15:45:12;4.50;;;1.20;;
20002;SDS011;10162;41.600;23.806;2023-03-26T15:50:44;1.80;;;1.40;;
20002;SDS011;10162;41.600;23.806;2023-03-26T16:03:46;1.70;;;1.30;;
20002;SDS011;10162;41.600;23.806;2023-03-26T16:06:27;1.97;;;1.50;;
20002;SDS011;10162;41.600;23.806;2023-03-26T16:17:01;2.30;;;1.80;;
20002;SDS011;10162;41.600;23.806;2023-03-26T16:19:32;2.30;;;1.93;;
20002;SDS011;10162;41.600;23.806;2023-03-26T16:30:37;1.30;;;1.20;;
20002;SDS011;10162;41.600;23.806;2023-03-26T16:33:16;5.63;;;4.40;;
20002;SDS011;10162;41.600;23.806;2023-03-26T16:38:45;11.27;;;9.30;;
20002;SDS011;10162;41.600;23.806;2023-03-26T16:44:25;3.47;;;2.90;;
20002;SDS011;10162;41.600;23.806;2023-03-26T16:48:14;2.47;;;1.90;;
20002;SDS011;10162;41.600;23.806;2023-03-26T17:08:35;7.40;;;3.53;;
20002;SDS011;10162;41.600;23.806;2023-03-26T17:37:19;5.00;;;1.80;;
20002;SDS011;10162;41.600;23.806;2023-03-26T17:45:27;4.17;;;3.60;;
20002;SDS011;10162;41.600;23.806;2023-03-26T17:48:04;4.00;;;3.03;;
20002;SDS011;10162;41.600;23.806;2023-03-26T17:50:40;4.37;;;3.93;;
20002;SDS011;10162;41.600;23.806;2023-03-26T17:56:15;5.20;;;4.20;;
20002;SDS011;10162;41.600;23.806;2023-03-26T17:58:48;2.37;;;2.17;;
20002;SDS011;10162;41.600;23.806;2023-03-26T18:17:03;2.50;;;2.00;;
20002;SDS011;10162;41.600;23.806;2023-03-26T18:19:44;1.80;;;1.60;;
20002;SDS011;10162;41.600;23.806;2023-03-26T18:25:57;2.23;;;2.00;;
20002;SDS011;10162;41.600;23.806;2023-03-26T18:28:33;3.27;;;1.97;;
20002;SDS011;10162;41.600;23.806;2023-03-26T18:31:06;4.03;;;2.03;;
20002;SDS011;10162;41.600;23.806;2023-03-26T18:33:54;3.60;;;3.10;;
20002;SDS011;10162;41.600;23.806;2023-03-26T18:36:24;8.87;;;4.73;;
20002;SDS011;10162;41.600;23.806;2023-03-26T18:38:55;16.10;;;6.80;;
20002;SDS011;10162;41.600;23.806;2023-03-26T18:41:33;11.97;;;6.63;;
20002;SDS011;10162;41.600;23.806;2023-03-26T18:46:50;10.53;;;4.20;;
20002;SDS011;10162;41.600;23.806;2023-03-26T18:49:18;5.27;;;2.87;;
20002;SDS011;10162;41.600;23.806;2023-03-26T18:51:45;5.43;;;3.53;;
20002;SDS011;10162;41.600;23.806;2023-03-26T18:57:29;3.70;;;2.70;;
20002;SDS011;10162;41.600;23.806;2023-03-26T18:59:56;3.77;;;2.53;;
20002;SDS011;10162;41.600;23.806;2023-03-26T19:02:43;5.80;;;3.93;;
20002;SDS011;10162;41.600;23.806;2023-03-26T19:05:13;4.70;;;3.40;;
20002;SDS011;10162;41.600;23.806;2023-03-26T19:07:40;6.50;;;3.97;;
20002;SDS011;10162;41.600;23.806;2023-03-26T19:10:12;4.90;;;3.30;;
20002;SDS011;10162;41.600;23.806;2023-03-26T19:15:48;5.30;;;2.80;;
20002;SDS011;10162;41.600;23.806;2023-03-26T19:18:24;4.13;;;2.40;;
20002;SDS011;10162;41.600;23.806;2023-03-26T19:20:53;3.57;;;2.17;;
20002;SDS011;10162;41.600;23.806;2023-03-26T19:27:15;4.87;;;2.83;;
20002;SDS011;10162;41.600;23.806;2023-03-26T19:29:42;5.40;;;3.00;;
20002;SDS011;10162;41.600;23.806;2023-03-26T19:38:51;5.83;;;3.33;;
20002;SDS011;10162;41.600;23.806;2023-03-26T19:41:25;3.77;;;2.70;;
20002;SDS011;10162;41.600;23.806;2023-03-26T19:47:12;4.47;;;2.70;;
20002;SDS011;10162;41.600;23.806;2023-03-26T19:49:55;5.17;;;2.60;;
20002;SDS011;10162;41.600;23.806;2023-03-26T19:55:21;3.27;;;2.50;;
20002;SDS011;10162;41.600;23.806;2023-03-26T19:57:52;7.10;;;5.30;;
20002;SDS011;10162;41.600;23.806;2023-03-26T20:00:18;5.13;;;3.63;;
20002;SDS011;10162;41.600;23.806;2023-03-26T20:05:31;3.40;;;2.30;;
20002;SDS011;10162;41.600;23.806;2023-03-26T20:08:08;2.47;;;1.90;;
20002;SDS011;10162;41.600;23.806;2023-03-26T20:10:41;2.40;;;1.97;;
20002;SDS011;10162;41.600;23.806;2023-03-26T20:18:52;1.43;;;1.20;;
20002;SDS011;10162;41.600;23.806;2023-03-26T20:21:22;1.37;;;1.10;;
20002;SDS011;10162;41.600;23.806;2023-03-26T20:23:55;2.07;;;1.30;;
20002;SDS011;10162;41.600;23.806;2023-03-26T20:26:28;1.87;;;1.30;;
20002;SDS011;10162;41.600;23.806;2023-03-26T20:28:54;1.83;;;1.30;;
20002;SDS011;10162;41.600;23.806;2023-03-26T20:31:21;1.10;;;1.00;;
20002;SDS011;10162;41.600;23.806;2023-03-26T20:36:25;6.37;;;3.23;;
20002;SDS011;10162;41.600;23.806;2023-03-26T20:38:51;6.43;;;3.80;;
20002;SDS011;10162;41.600;23.806;2023-03-26T20:41:22;4.57;;;3.00;;
20002;SDS011;10162;41.600;23.806;2023-03-26T20:46:45;3.17;;;1.80;;
20002;SDS011;10162;41.600;23.806;2023-03-26T20:49:12;3.37;;;1.80;;
20002;SDS011;10162;41.600;23.806;2023-03-26T20:51:43;2.70;;;1.87;;
20002;SDS011;10162;41.600;23.806;2023-03-26T20:54:22;3.60;;;1.47;;
20002;SDS011;10162;41.600;23.806;2023-03-26T20:56:50;2.30;;;1.60;;
20002;SDS011;10162;41.600;23.806;2023-03-26T20:59:19;2.40;;;1.60;;
20002;SDS011;10162;41.600;23.806;2023-03-26T21:01:47;4.43;;;1.40;;
20002;SDS011;10162;41.600;23.806;2023-03-26T21:07:04;2.30;;;1.67;;
20002;SDS011;10162;41.600;23.806;2023-03-26T21:09:32;1.40;;;1.20;;
20002;SDS011;10162;41.600;23.806;2023-03-26T21:14:59;2.20;;;1.50;;
20002;SDS011;10162;41.600;23.806;2023-03-26T21:17:26;1.30;;;1.20;;
20002;SDS011;10162;41.600;23.806;2023-03-26T21:19:58;1.50;;;1.40;;
20002;SDS011;10162;41.600;23.806;2023-03-26T21:28:31;3.33;;;1.30;;
20002;SDS011;10162;41.600;23.806;2023-03-26T21:31:00;1.23;;;1.00;;
20002;SDS011;10162;41.600;23.806;2023-03-26T21:36:31;1.63;;;1.53;;
20002;SDS011;10162;41.600;23.806;2023-03-26T21:38:57;4.47;;;2.20;;
20002;SDS011;10162;41.600;23.806;2023-03-26T21:41:44;2.13;;;1.90;;
20002;SDS011;10162;41.600;23.806;2023-03-26T21:44:20;5.57;;;2.50;;
20002;SDS011;10162;41.600;23.806;2023-03-26T21:46:48;4.33;;;2.00;;
20002;SDS011;10162;41.600;23.806;2023-03-26T21:49:15;3.67;;;2.03;;
20002;SDS011;10162;41.600;23.806;2023-03-26T21:51:43;4.20;;;2.33;;
20002;SDS011;10162;41.600;23.806;2023-03-26T21:57:18;3.33;;;1.90;;
20002;SDS011;10162;41.600;23.806;2023-03-26T22:05:16;4.23;;;2.20;;
20002;SDS011;10162;41.600;23.806;2023-03-26T22:08:19;3.03;;;2.10;;
20002;SDS011;10162;41.600;23.806;2023-03-26T22:10:52;3.33;;;2.07;;
20002;SDS011;10162;41.600;23.806;2023-03-26T22:13:18;2.47;;;2.00;;
20002;SDS011;10162;41.600;23.806;2023-03-26T22:15:43;2.77;;;1.90;;
20002;SDS011;10162;41.600;23.806;2023-03-26T22:18:10;2.20;;;1.90;;
20002;SDS011;10162;41.600;23.806;2023-03-26T22:20:39;3.07;;;1.50;;
20002;SDS011;10162;41.600;23.806;2023-03-26T22:25:45;2.07;;;1.57;;
20002;SDS011;10162;41.600;23.806;2023-03-26T22:28:11;3.07;;;2.00;;
20002;SDS011;10162;41.600;23.806;2023-03-26T22:30:38;2.17;;;1.67;;
20002;SDS011;10162;41.600;23.806;2023-03-26T22:36:24;2.50;;;1.90;;
20002;SDS011;10162;41.600;23.806;2023-03-26T22:38:52;3.53;;;2.00;;
20002;SDS011;10162;41.600;23.806;2023-03-26T22:41:21;3.73;;;2.17;;
20002;SDS011;10162;41.600;23.806;2023-03-26T22:46:43;2.73;;;1.97;;
20002;SDS011;10162;41.600;23.806;2023-03-26T22:49:13;2.43;;;1.70;;
20002;SDS011;10162;41.600;23.806;2023-03-26T22:51:39;2.43;;;1.90;;
20002;SDS011;10162;41.600;23.806;2023-03-26T22:54:08;4.67;;;2.30;;
20002;SDS011;10162;41.600;23.806;2023-03-26T22:56:34;2.13;;;1.67;;
20002;SDS011;10162;41.600;23.806;2023-03-26T22:59:01;1.97;;;1.73;;
20002;SDS011;10162;41.600;23.806;2023-03-26T23:01:29;3.53;;;2.13;;
20002;SDS011;10162;41.600;23.806;2023-03-26T23:06:38;2.27;;;1.70;;
20002;SDS011;10162;41.600;23.806;2023-03-26T23:09:05;2.73;;;1.97;;
20002;SDS011;10162;41.600;23.806;2023-03-26T23:11:31;4.90;;;1.80;;
20002;SDS011;10162;41.600;23.806;2023-03-26T23:16:45;3.20;;;1.73;;
20002;SDS011;10162;41.600;23.806;2023-03-26T23:19:14;2.80;;;1.93;;
20002;SDS011;10162;41.600;23.806;2023-03-26T23:21:50;7.80;;;2.00;;
20002;SDS011;10162;41.600;23.806;2023-03-26T23:28:10;2.37;;;1.57;;
20002;SDS011;10162;41.600;23.806;2023-03-26T23:30:40;3.37;;;1.77;;
20002;SDS011;10162;41.600;23.806;2023-03-26T23:33:15;2.90;;;2.13;;
20002;SDS011;10162;41.600;23.806;2023-03-26T23:35:49;2.40;;;2.07;;
20002;SDS011;10162;41.600;23.806;2023-03-26T23:38:17;3.03;;;1.83;;
20002;SDS011;10162;41.600;23.806;2023-03-26T23:40:46;3.00;;;2.30;;
20002;SDS011;10162;41.600;23.806;2023-03-26T23:46:20;3.17;;;2.03;;
20002;SDS011;10162;41.600;23.806;2023-03-26T23:48:50;3.93;;;2.30;;
20002;SDS011;10162;41.600;23.806;2023-03-26T23:51:16;3.60;;;2.03;;
20002;SDS011;10162;41.600;23.806;2023-03-26T23:56:43;4.23;;;2.20;;
20002;SDS011;10162;41.600;23.806;2023-03-26T23:59:09;2.93;;;2.10;;
